createdAt,value
2018-10-12T00:01:54.383Z,75.56
2018-10-12T00:04:22.429Z,75.96
2018-10-12T00:06:50.339Z,75.94
2018-10-12T00:09:18.160Z,75.97
2018-10-12T00:11:46.016Z,75.78
2018-10-12T00:14:13.948Z,75.52
2018-10-12T00:16:41.723Z,75.81
2018-10-12T00:19:09.463Z,76.44
2018-10-12T00:21:37.324Z,76.26
2018-10-12T00:24:05.062Z,76.02
2018-10-12T00:26:32.758Z,76.73
2018-10-12T00:29:00.509Z,76.75
2018-10-12T00:31:28.242Z,76.66
2018-10-12T00:33:55.986Z,76.17
2018-10-12T00:36:23.782Z,76.34
2018-10-12T00:38:51.514Z,76.41
2018-10-12T00:41:19.237Z,76.42
2018-10-12T00:43:46.982Z,75.84
2018-10-12T00:46:14.736Z,76.10
2018-10-12T00:48:42.507Z,76.13
2018-10-12T00:51:10.353Z,76.28
2018-10-12T00:53:38.059Z,76.51
2018-10-12T00:56:06.085Z,76.75
2018-10-12T00:58:33.899Z,76.64
2018-10-12T01:01:01.661Z,76.74
2018-10-12T01:03:29.475Z,77.29
2018-10-12T01:05:57.782Z,77.90
2018-10-12T01:08:26.055Z,79.22
2018-10-12T01:10:54.307Z,79.05
2018-10-12T01:13:22.523Z,79.09
2018-10-12T01:15:50.985Z,79.20
2018-10-12T01:18:19.153Z,79.25
2018-10-12T01:20:47.672Z,78.90
2018-10-12T01:23:15.805Z,78.78
2018-10-12T01:25:44.138Z,78.86
2018-10-12T01:28:11.954Z,78.05
2018-10-12T01:30:39.823Z,78.48
2018-10-12T01:33:08.084Z,77.75
2018-10-12T01:35:36.635Z,77.80
2018-10-12T01:38:04.854Z,78.36
2018-10-12T01:40:33.150Z,79.00
2018-10-12T01:43:01.801Z,79.02
2018-10-12T01:45:30.319Z,78.76
2018-10-12T01:47:58.555Z,78.33
2018-10-12T01:50:26.870Z,78.26
2018-10-12T01:52:55.273Z,78.39
2018-10-12T01:55:23.409Z,78.85
2018-10-12T01:57:51.619Z,78.77
2018-10-12T02:00:19.916Z,79.59
2018-10-12T02:02:48.101Z,79.74
2018-10-12T02:05:16.557Z,79.08
2018-10-12T02:07:44.925Z,78.49
2018-10-12T02:10:13.238Z,78.62
2018-10-12T02:12:41.436Z,78.98
2018-10-12T02:15:09.570Z,78.62
2018-10-12T02:17:37.899Z,78.29
2018-10-12T02:20:06.512Z,79.02
2018-10-12T02:22:34.855Z,79.70
2018-10-12T02:25:03.066Z,79.80
2018-10-12T02:27:31.207Z,79.15
2018-10-12T02:29:59.074Z,79.60
2018-10-12T02:32:26.847Z,79.11
2018-10-12T02:34:54.646Z,79.22
2018-10-12T02:37:22.387Z,78.94
2018-10-12T02:39:50.148Z,78.93
2018-10-12T02:42:17.991Z,78.59
2018-10-12T02:44:45.746Z,78.58
2018-10-12T02:47:13.604Z,78.52
2018-10-12T02:49:41.374Z,78.08
2018-10-12T02:52:09.078Z,78.85
2018-10-12T02:54:36.734Z,78.75
2018-10-12T02:57:04.536Z,78.75
2018-10-12T02:59:32.302Z,78.73
2018-10-12T03:02:00.464Z,79.17
2018-10-12T03:04:28.814Z,79.95
2018-10-12T03:06:57.018Z,79.60
2018-10-12T03:09:25.288Z,79.02
2018-10-12T03:11:53.608Z,78.29
2018-10-12T03:14:21.904Z,77.91
2018-10-12T03:16:50.314Z,77.88
2018-10-12T03:19:18.441Z,78.13
2018-10-12T03:21:46.339Z,78.25
2018-10-12T03:24:14.112Z,77.98
2018-10-12T03:26:41.906Z,77.79
2018-10-12T03:29:09.634Z,77.41
2018-10-12T03:31:37.420Z,77.62
2018-10-12T03:34:05.334Z,78.10
2018-10-12T03:36:33.235Z,78.33
2018-10-12T03:39:01.160Z,78.13
2018-10-12T03:41:28.988Z,78.12
2018-10-12T03:43:56.718Z,77.87
2018-10-12T03:46:24.457Z,77.86
2018-10-12T03:48:52.319Z,78.12
2018-10-12T03:51:20.048Z,78.22
2018-10-12T03:53:47.818Z,79.25
2018-10-12T03:56:15.684Z,78.51
2018-10-12T03:58:43.427Z,78.00
2018-10-12T04:01:11.172Z,78.14
2018-10-12T04:03:39.013Z,77.92
2018-10-12T04:06:06.801Z,77.44
2018-10-12T04:08:34.498Z,77.71
2018-10-12T04:11:02.226Z,77.50
2018-10-12T04:13:29.963Z,76.99
2018-10-12T04:15:57.654Z,76.90
2018-10-12T04:18:25.409Z,76.71
2018-10-12T04:20:53.102Z,76.12
2018-10-12T04:23:20.895Z,76.79
2018-10-12T04:25:48.672Z,76.61
2018-10-12T04:28:16.406Z,76.51
2018-10-12T04:30:44.160Z,76.61
2018-10-12T04:33:11.944Z,76.54
2018-10-12T04:35:39.650Z,77.57
2018-10-12T04:38:07.461Z,76.88
2018-10-12T04:41:12.830Z,77.31
2018-10-12T04:43:40.724Z,77.81
2018-10-12T04:46:11.215Z,77.19
2018-10-12T04:48:39.999Z,76.96
2018-10-12T04:51:10.579Z,76.95
2018-10-12T04:53:38.393Z,77.26
2018-10-12T04:56:11.618Z,77.25
2018-10-12T04:58:40.166Z,76.59
2018-10-12T05:01:08.086Z,77.24
2018-10-12T05:03:35.992Z,77.02
2018-10-12T05:06:04.468Z,77.13
2018-10-12T05:08:32.621Z,76.77
2018-10-12T05:11:00.494Z,76.84
2018-10-12T05:13:28.315Z,76.85
2018-10-12T05:15:56.090Z,76.74
2018-10-12T05:18:23.946Z,76.98
2018-10-12T05:20:51.695Z,77.34
2018-10-12T05:23:19.382Z,76.78
2018-10-12T05:25:47.231Z,75.88
2018-10-12T05:28:14.975Z,76.38
2018-10-12T05:30:42.664Z,75.90
2018-10-12T05:33:10.438Z,76.08
2018-10-12T05:35:38.242Z,75.26
2018-10-12T05:38:06.059Z,75.81
2018-10-12T05:40:33.921Z,75.58
2018-10-12T05:43:01.693Z,74.92
2018-10-12T05:45:29.444Z,75.16
2018-10-12T05:48:08.582Z,75.20
2018-10-12T05:50:37.050Z,75.84
2018-10-12T05:53:05.273Z,75.87
2018-10-12T05:55:33.647Z,75.75
2018-10-12T05:58:01.983Z,75.32
2018-10-12T06:00:30.221Z,75.49
2018-10-12T06:02:58.612Z,75.70
2018-10-12T06:05:26.323Z,75.47
2018-10-12T06:07:54.017Z,74.84
2018-10-12T06:10:21.912Z,73.88
2018-10-12T06:12:49.664Z,74.43
2018-10-12T06:15:17.485Z,74.65
2018-10-12T06:17:45.616Z,74.56
2018-10-12T06:20:13.415Z,73.53
2018-10-12T06:22:41.152Z,73.53
2018-10-12T06:25:09.023Z,73.29
2018-10-12T06:27:36.778Z,72.51
2018-10-12T06:30:04.831Z,71.68
2018-10-12T06:32:32.606Z,72.01
2018-10-12T06:35:00.378Z,70.63
2018-10-12T06:37:28.119Z,71.24
2018-10-12T06:39:55.947Z,70.92
2018-10-12T06:42:23.654Z,68.79
2018-10-12T06:44:51.354Z,68.15
2018-10-12T06:47:19.110Z,66.86
2018-10-12T06:49:46.814Z,67.93
2018-10-12T06:52:14.527Z,68.85
2018-10-12T06:54:42.363Z,69.80
2018-10-12T06:57:10.098Z,69.98
2018-10-12T06:59:37.955Z,68.85
2018-10-12T07:02:06.087Z,67.96
2018-10-12T07:04:33.990Z,66.28
2018-10-12T07:07:01.883Z,64.54
2018-10-12T07:09:29.754Z,66.05
2018-10-12T07:11:57.547Z,63.82
2018-10-12T07:14:25.304Z,67.30
2018-10-12T07:16:53.123Z,67.99
2018-10-12T07:19:20.879Z,65.63
2018-10-12T07:21:48.612Z,68.97
2018-10-12T07:24:16.819Z,69.04
2018-10-12T07:26:45.120Z,70.38
2018-10-12T07:29:13.252Z,68.72
2018-10-12T07:31:41.842Z,69.03
2018-10-12T07:34:09.706Z,68.09
2018-10-12T07:36:37.790Z,68.56
2018-10-12T07:39:07.710Z,68.02
2018-10-12T07:41:36.031Z,66.17
2018-10-12T07:44:04.283Z,64.35
2018-10-12T07:46:32.626Z,63.63
2018-10-12T07:49:00.835Z,64.86
2018-10-12T07:51:29.031Z,63.77
2018-10-12T07:53:57.266Z,65.41
2018-10-12T07:56:25.459Z,63.91
2018-10-12T07:58:53.922Z,64.31
2018-10-12T08:01:22.020Z,65.21
2018-10-12T08:03:50.304Z,63.32
2018-10-12T08:06:18.592Z,62.35
2018-10-12T08:08:46.859Z,63.94
2018-10-12T08:11:14.664Z,66.24
2018-10-12T08:13:42.446Z,64.98
2018-10-12T08:16:10.339Z,65.30
2018-10-12T08:18:39.113Z,66.63
2018-10-12T08:21:07.150Z,66.45
2018-10-12T08:23:34.944Z,62.82
2018-10-12T08:26:02.735Z,61.51
2018-10-12T08:28:30.532Z,60.41
2018-10-12T08:30:58.335Z,59.24
2018-10-12T08:33:26.160Z,56.68
2018-10-12T08:35:53.943Z,54.70
2018-10-12T08:38:21.711Z,54.87
2018-10-12T08:40:49.504Z,52.85
2018-10-12T08:43:17.290Z,55.21
2018-10-12T08:45:45.099Z,56.05
2018-10-12T08:48:12.874Z,56.07
2018-10-12T08:50:40.588Z,56.74
2018-10-12T08:53:08.420Z,53.75
2018-10-12T08:55:36.220Z,51.98
2018-10-12T08:58:03.995Z,54.24
2018-10-12T09:00:31.840Z,54.01
2018-10-12T09:02:59.759Z,51.50
2018-10-12T09:05:27.440Z,53.17
2018-10-12T09:07:55.266Z,52.90
2018-10-12T09:10:23.079Z,51.22
2018-10-12T09:12:50.786Z,51.05
2018-10-12T09:15:18.534Z,51.13
2018-10-12T09:17:46.403Z,52.22
2018-10-12T09:20:14.191Z,51.42
2018-10-12T09:22:41.983Z,50.87
2018-10-12T09:25:09.767Z,48.58
2018-10-12T09:27:37.514Z,47.77
2018-10-12T09:30:05.386Z,49.09
2018-10-12T09:32:33.240Z,46.76
2018-10-12T09:35:01.022Z,49.07
2018-10-12T09:37:28.812Z,50.32
2018-10-12T09:39:56.586Z,52.87
2018-10-12T09:42:24.715Z,50.06
2018-10-12T09:44:52.791Z,50.73
2018-10-12T09:47:20.755Z,49.36
2018-10-12T09:49:48.574Z,49.20
2018-10-12T09:52:16.447Z,47.14
2018-10-12T09:54:44.287Z,47.16
2018-10-12T09:57:17.671Z,47.82
2018-10-12T10:02:18.024Z,48.53
2018-10-12T10:04:45.782Z,46.71
2018-10-12T10:07:13.556Z,46.16
2018-10-12T10:09:41.389Z,43.72
2018-10-12T10:12:09.194Z,42.70
2018-10-12T10:14:37.242Z,43.77
2018-10-12T10:17:05.011Z,43.44
2018-10-12T10:19:33.617Z,43.93
2018-10-12T10:22:01.427Z,41.37
2018-10-12T10:24:29.365Z,40.81
2018-10-12T10:26:57.278Z,38.76
2018-10-12T10:29:25.098Z,39.93
2018-10-12T10:31:53.079Z,38.14
2018-10-12T10:34:20.772Z,41.12
2018-10-12T10:36:48.532Z,41.64
2018-10-12T10:39:16.411Z,42.99
2018-10-12T10:41:44.178Z,40.64
2018-10-12T10:44:11.979Z,41.74
2018-10-12T10:46:39.851Z,39.36
2018-10-12T10:49:07.671Z,40.84
2018-10-12T10:51:35.475Z,41.04
2018-10-12T10:54:03.339Z,40.18
2018-10-12T10:56:31.129Z,40.07
2018-10-12T10:58:58.923Z,36.82
2018-10-12T11:01:26.767Z,38.42
2018-10-12T11:03:54.538Z,38.61
2018-10-12T11:06:22.427Z,37.42
2018-10-12T11:08:50.246Z,40.24
2018-10-12T11:11:18.005Z,38.54
2018-10-12T11:13:45.794Z,36.97
2018-10-12T11:16:13.607Z,37.37
2018-10-12T11:18:41.417Z,39.72
2018-10-12T11:21:09.220Z,39.23
2018-10-12T11:23:37.037Z,39.08
2018-10-12T11:26:04.935Z,40.48
2018-10-12T11:28:32.759Z,41.53
2018-10-12T11:31:00.591Z,41.13
2018-10-12T11:33:28.374Z,38.98
2018-10-12T11:35:56.163Z,38.77
2018-10-12T11:38:24.024Z,38.58
2018-10-12T11:40:51.766Z,40.24
2018-10-12T11:43:33.481Z,41.46
2018-10-12T11:46:01.704Z,40.62
2018-10-12T11:48:29.500Z,40.75
2018-10-12T11:50:57.775Z,41.17
2018-10-12T11:53:25.576Z,39.82
2018-10-12T11:55:53.394Z,39.51
2018-10-12T11:58:21.262Z,40.35
2018-10-12T12:00:49.100Z,41.00
2018-10-12T12:03:17.319Z,40.60
2018-10-12T12:05:45.170Z,41.73
2018-10-12T12:08:12.968Z,42.38
2018-10-12T12:10:41.188Z,42.17
2018-10-12T12:13:09.095Z,41.55
2018-10-12T12:15:37.115Z,41.13
2018-10-12T12:18:05.282Z,41.58
2018-10-12T12:20:33.140Z,41.80
2018-10-12T12:23:00.913Z,41.81
2018-10-12T12:25:28.747Z,40.97
2018-10-12T12:27:56.609Z,40.49
2018-10-12T12:30:24.417Z,40.46
2018-10-12T12:32:52.250Z,37.93
2018-10-12T12:35:20.307Z,39.32
2018-10-12T12:37:47.958Z,39.08
2018-10-12T12:40:15.744Z,41.54
2018-10-12T12:42:43.623Z,42.63
2018-10-12T12:45:11.445Z,42.46
2018-10-12T12:47:39.322Z,41.37
2018-10-12T12:50:07.307Z,40.80
2018-10-12T12:52:35.608Z,39.79
2018-10-12T12:55:03.582Z,39.10
2018-10-12T12:57:31.457Z,39.10
2018-10-12T12:59:59.303Z,39.33
2018-10-12T13:02:27.186Z,38.99
2018-10-12T13:04:55.038Z,38.57
2018-10-12T13:07:22.908Z,38.31
2018-10-12T13:09:50.724Z,38.76
2018-10-12T13:12:18.678Z,37.32
2018-10-12T13:14:46.723Z,38.62
2018-10-12T13:17:14.909Z,37.89
2018-10-12T13:19:42.822Z,37.81
2018-10-12T13:22:10.660Z,38.19
2018-10-12T13:24:38.529Z,38.74
2018-10-12T13:27:06.415Z,39.60
2018-10-12T13:29:34.228Z,39.00
2018-10-12T13:32:02.095Z,40.47
2018-10-12T13:34:29.866Z,39.96
2018-10-12T13:36:57.686Z,41.21
2018-10-12T13:39:25.500Z,41.66
2018-10-12T13:41:53.338Z,42.43
2018-10-12T13:44:21.114Z,41.68
2018-10-12T13:46:48.894Z,42.89
2018-10-12T13:49:16.747Z,42.62
2018-10-12T13:51:44.540Z,42.11
2018-10-12T13:54:12.363Z,42.01
2018-10-12T13:56:40.173Z,41.54
2018-10-12T13:59:07.973Z,41.24
2018-10-12T14:01:35.740Z,41.56
2018-10-12T14:04:03.603Z,41.22
2018-10-12T14:06:31.421Z,41.22
2018-10-12T14:08:59.223Z,39.98
2018-10-12T14:11:27.065Z,40.37
2018-10-12T14:13:54.861Z,41.41
2018-10-12T14:16:22.629Z,41.61
2018-10-12T14:18:50.715Z,40.98
2018-10-12T14:21:18.318Z,42.35
2018-10-12T14:23:46.104Z,42.62
2018-10-12T14:26:14.161Z,42.66
2018-10-12T14:28:41.917Z,42.82
2018-10-12T14:31:09.742Z,42.72
2018-10-12T14:33:37.544Z,42.83
2018-10-12T14:36:05.383Z,42.66
2018-10-12T14:38:33.136Z,43.69
2018-10-12T14:41:00.926Z,42.68
2018-10-12T14:43:28.706Z,43.09
2018-10-12T14:45:56.747Z,42.24
2018-10-12T14:48:24.564Z,42.24
2018-10-12T14:50:52.312Z,43.42
2018-10-12T14:53:20.116Z,42.72
2018-10-12T14:55:47.942Z,43.76
2018-10-12T14:58:15.709Z,43.33
2018-10-12T15:00:43.520Z,43.81
2018-10-12T15:03:11.324Z,43.84
2018-10-12T15:05:39.166Z,43.27
2018-10-12T15:08:07.214Z,43.31
2018-10-12T15:10:35.015Z,44.20
2018-10-12T15:13:02.764Z,44.38
2018-10-12T15:15:30.572Z,44.64
2018-10-12T15:17:59.052Z,43.92
2018-10-12T15:20:26.833Z,45.07
2018-10-12T15:22:55.157Z,45.08
2018-10-12T15:25:23.881Z,45.07
2018-10-12T15:27:52.123Z,44.04
2018-10-12T15:30:20.567Z,43.83
2018-10-12T15:32:48.943Z,43.75
2018-10-12T15:35:17.192Z,44.22
2018-10-12T15:37:45.288Z,43.57
2018-10-12T15:40:13.103Z,43.91
2018-10-12T15:42:41.106Z,44.27
2018-10-12T15:45:08.868Z,44.13
2018-10-12T15:47:36.702Z,44.95
2018-10-12T15:50:04.914Z,44.38
2018-10-12T15:52:32.708Z,45.54
2018-10-12T15:55:00.660Z,45.63
2018-10-12T15:57:29.700Z,45.77
2018-10-12T15:59:57.470Z,45.53
2018-10-12T16:02:25.297Z,46.21
2018-10-12T16:04:53.065Z,45.90
2018-10-12T16:07:20.860Z,46.39
2018-10-12T16:09:49.957Z,46.90
2018-10-12T16:12:18.678Z,46.36
2018-10-12T16:14:46.492Z,47.09
2018-10-12T16:17:14.330Z,47.66
2018-10-12T16:19:42.107Z,47.29
2018-10-12T16:22:10.281Z,46.46
2018-10-12T16:26:49.808Z,44.94
2018-10-12T16:29:17.594Z,44.99
2018-10-12T16:34:12.455Z,44.30
2018-10-12T16:36:40.262Z,45.21
2018-10-12T16:39:08.771Z,44.61
2018-10-12T16:41:36.968Z,44.65
2018-10-12T16:44:04.766Z,45.37
2018-10-12T16:46:32.578Z,45.38
2018-10-12T16:49:00.533Z,44.68
2018-10-12T16:51:28.521Z,44.83
2018-10-12T16:53:56.257Z,46.44
2018-10-12T16:56:24.048Z,45.63
2018-10-12T16:58:51.820Z,46.56
2018-10-12T17:01:19.582Z,46.39
2018-10-12T17:03:47.374Z,46.42
2018-10-12T17:06:15.128Z,45.93
2018-10-12T17:08:42.869Z,46.37
2018-10-12T17:11:10.668Z,45.57
2018-10-12T17:13:38.430Z,46.70
2018-10-12T17:16:06.669Z,47.06
2018-10-12T17:18:34.493Z,46.70
2018-10-12T17:21:02.238Z,46.68
2018-10-12T17:23:30.054Z,47.62
2018-10-12T17:25:58.063Z,48.36
2018-10-12T17:28:25.816Z,49.07
2018-10-12T17:30:53.604Z,51.52
2018-10-12T17:33:21.430Z,53.00
2018-10-12T17:35:49.166Z,53.63
2018-10-12T17:38:17.575Z,57.13
2018-10-12T17:40:45.917Z,58.26
2018-10-12T17:43:14.332Z,58.18
2018-10-12T17:45:42.639Z,60.58
2018-10-12T17:48:11.143Z,61.03
2018-10-12T17:50:39.576Z,62.54
2018-10-12T17:53:07.854Z,63.26
2018-10-12T17:55:36.387Z,64.29
2018-10-12T17:58:04.582Z,64.55
2018-10-12T18:00:33.155Z,65.03
2018-10-12T18:03:01.430Z,65.83
2018-10-12T18:05:29.854Z,66.60
2018-10-12T18:07:58.140Z,67.62
2018-10-12T18:10:26.635Z,67.19
2018-10-12T18:12:54.874Z,67.02
2018-10-12T18:15:23.358Z,66.73
2018-10-12T18:17:51.673Z,67.48
2018-10-12T18:20:20.139Z,67.00
2018-10-12T18:22:48.366Z,67.46
2018-10-12T18:25:16.901Z,66.56
2018-10-12T18:27:45.135Z,66.37
2018-10-12T18:30:13.625Z,65.69
2018-10-12T18:32:42.006Z,65.47
2018-10-12T18:35:10.435Z,65.55
2018-10-12T18:37:38.643Z,65.93
2018-10-12T18:40:07.178Z,65.45
2018-10-12T18:42:35.420Z,65.14
2018-10-12T18:45:03.894Z,64.76
2018-10-12T18:47:32.115Z,63.61
2018-10-12T18:50:00.649Z,64.05
2018-10-12T18:52:29.134Z,62.92
2018-10-12T18:54:57.452Z,64.62
2018-10-12T18:57:25.869Z,64.38
2018-10-12T18:59:54.209Z,64.67
2018-10-12T19:02:22.494Z,63.93
2018-10-12T19:04:50.249Z,65.42
2018-10-12T19:07:18.035Z,66.00
2018-10-12T19:09:45.868Z,66.24
2018-10-12T19:12:13.647Z,66.10
2018-10-12T19:14:41.408Z,65.16
2018-10-12T19:17:09.217Z,65.08
2018-10-12T19:19:37.009Z,64.82
2018-10-12T19:22:04.775Z,64.96
2018-10-12T19:24:32.602Z,65.57
2018-10-12T19:27:00.444Z,65.58
2018-10-12T19:29:28.200Z,64.74
2018-10-12T19:31:56.040Z,64.84
2018-10-12T19:34:23.763Z,64.85
2018-10-12T19:36:51.533Z,64.82
2018-10-12T19:39:24.895Z,62.95
2018-10-12T19:41:52.661Z,63.92
2018-10-12T19:44:20.418Z,65.04
2018-10-12T19:46:48.206Z,64.52
2018-10-12T19:49:15.970Z,65.46
2018-10-12T19:51:43.727Z,65.82
2018-10-12T19:54:11.518Z,64.92
2018-10-12T19:56:39.294Z,64.36
2018-10-12T19:59:07.079Z,64.71
2018-10-12T20:01:34.852Z,64.51
2018-10-12T20:04:02.656Z,65.24
2018-10-12T20:06:30.446Z,64.98
2018-10-12T20:08:58.984Z,64.61
2018-10-12T20:11:27.096Z,66.39
2018-10-12T20:13:55.458Z,67.29
2018-10-12T20:16:23.205Z,65.02
2018-10-12T20:18:50.965Z,66.06
2018-10-12T20:21:18.731Z,66.35
2018-10-12T20:23:46.504Z,65.34
2018-10-12T20:26:15.034Z,67.43
2018-10-12T20:28:43.487Z,68.52
2018-10-12T20:31:11.847Z,67.40
2018-10-12T20:33:39.651Z,68.23
2018-10-12T20:36:07.900Z,69.65
2018-10-12T20:38:36.337Z,68.62
2018-10-12T20:41:04.147Z,68.67
2018-10-12T20:43:32.331Z,67.70
2018-10-12T20:46:00.666Z,67.21
2018-10-12T20:48:29.104Z,67.46
2018-10-12T20:50:57.358Z,67.19
2018-10-12T20:53:25.917Z,67.43
2018-10-12T20:55:54.243Z,67.55
2018-10-12T20:58:22.016Z,68.99
2018-10-12T21:00:50.508Z,68.31
2018-10-12T21:03:18.226Z,68.36
2018-10-12T21:05:46.697Z,68.05
2018-10-12T21:08:15.142Z,68.16
2018-10-12T21:10:43.582Z,67.16
2018-10-12T21:13:11.855Z,67.03
2018-10-12T21:15:40.374Z,67.24
2018-10-12T21:18:08.599Z,67.15
2018-10-12T21:20:38.100Z,67.50
2018-10-12T21:23:06.860Z,65.87
2018-10-12T21:25:35.051Z,67.58
2018-10-12T21:28:03.603Z,67.72
2018-10-12T21:30:31.874Z,68.65
2018-10-12T21:33:00.287Z,67.61
2018-10-12T21:35:28.572Z,68.61
2018-10-12T21:37:57.112Z,67.69
2018-10-12T21:40:25.401Z,68.54
2018-10-12T21:42:53.818Z,69.13
2018-10-12T21:45:22.106Z,69.08
2018-10-12T21:47:50.595Z,68.87
2018-10-12T21:50:18.615Z,69.29
2018-10-12T21:52:46.415Z,71.54
2018-10-12T21:55:14.189Z,69.39
2018-10-12T21:57:41.950Z,69.40
2018-10-12T22:00:10.076Z,70.15
2018-10-12T22:02:38.587Z,70.08
2018-10-12T22:05:07.099Z,69.19
2018-10-12T22:07:35.548Z,68.43
2018-10-12T22:10:04.302Z,68.29
2018-10-12T22:12:32.719Z,68.55
2018-10-12T22:15:01.052Z,68.76
2018-10-12T22:17:29.481Z,69.30
2018-10-12T22:19:57.737Z,69.86
2018-10-12T22:22:26.264Z,69.28
2018-10-12T22:24:54.504Z,69.97
2018-10-12T22:27:22.322Z,70.57
2018-10-12T22:29:50.087Z,69.89
2018-10-12T22:32:17.842Z,70.85
2018-10-12T22:34:45.605Z,70.81
2018-10-12T22:37:13.397Z,71.47
2018-10-12T22:39:42.321Z,71.31
2018-10-12T22:42:11.105Z,71.55
2018-10-12T22:44:39.198Z,71.92
2018-10-12T22:47:07.892Z,71.94
2018-10-12T22:49:36.266Z,72.31
2018-10-12T22:52:04.996Z,72.27
2018-10-12T22:54:33.214Z,71.59
2018-10-12T22:57:01.696Z,71.85
2018-10-12T22:59:30.011Z,72.39
2018-10-12T23:01:58.171Z,73.13
2018-10-12T23:04:26.065Z,73.23
2018-10-12T23:06:54.021Z,73.00
2018-10-12T23:09:21.987Z,73.40
2018-10-12T23:11:50.123Z,73.51
2018-10-12T23:14:18.439Z,73.32
2018-10-12T23:16:46.406Z,73.12
2018-10-12T23:19:14.508Z,73.95
2018-10-12T23:21:42.814Z,74.01
2018-10-12T23:24:10.535Z,73.96
2018-10-12T23:26:38.503Z,73.94
2018-10-12T23:29:06.792Z,73.35
2018-10-12T23:31:35.235Z,73.40
2018-10-12T23:34:06.438Z,74.06
2018-10-12T23:36:34.739Z,74.31
2018-10-12T23:39:03.339Z,74.43
2018-10-12T23:41:31.185Z,74.33
2018-10-12T23:43:59.511Z,74.18
2018-10-12T23:46:27.766Z,73.87
2018-10-12T23:48:55.888Z,73.76
2018-10-12T23:51:23.987Z,73.92
2018-10-12T23:53:52.215Z,74.14
2018-10-12T23:56:20.693Z,74.73
2018-10-12T23:58:48.780Z,75.44
